Time;durP1;ratioP1;P1;durP2;ratioP2;P2;SDS_P1;SDS_P2;PMS_P1;PMS_P2;Temp;Humidity;BMP_temperature;BMP_pressure;BME280_temperature;BME280_humidity;BME280_pressure;Samples;Min_cycle;Max_cycle;Signal;HPM_P1;HPM_P2
2023/08/30 00:00:11;;;;;;;3.20;2.90;;;;;;;20.08;67.95;92591.34;513923;28;931;-45
2023/08/30 00:00:26;;;;;;;3.30;2.90;;;;;;;20.08;67.93;92591.34;513989;28;915;-45
2023/08/30 00:00:41;;;;;;;3.17;2.67;;;;;;;20.08;67.71;92594.13;513797;28;908;-45
2023/08/30 00:00:57;;;;;;;3.10;2.80;;;;;;;20.09;67.56;92592.06;512520;28;1839;-45
2023/08/30 00:01:12;;;;;;;2.85;2.58;;;;;;;20.09;67.57;92592.06;513775;28;785;-45
2023/08/30 00:01:28;;;;;;;3.58;2.55;;;;;;;20.08;67.30;92588.53;513867;28;864;-46
2023/08/30 00:01:43;;;;;;;3.97;2.80;;;;;;;20.09;67.64;92589.25;513865;28;1185;-45
2023/08/30 00:01:58;;;;;;;3.58;2.75;;;;;;;20.08;67.63;92590.59;513609;28;1614;-46
2023/08/30 00:02:14;;;;;;;4.43;2.97;;;;;;;20.06;67.69;92590.53;513134;28;881;-46
2023/08/30 00:02:29;;;;;;;4.80;2.90;;;;;;;20.05;67.65;92589.81;512092;28;917;-46
2023/08/30 00:02:45;;;;;;;2.95;2.33;;;;;;;20.04;67.61;92585.56;511899;28;837;-46
2023/08/30 00:03:00;;;;;;;2.30;2.10;;;;;;;20.04;67.62;92588.34;513248;28;837;-47
2023/08/30 00:03:15;;;;;;;3.22;2.45;;;;;;;20.03;67.62;92591.81;511918;28;853;-46
2023/08/30 00:03:31;;;;;;;3.93;2.73;;;;;;;20.04;67.62;92593.97;512439;28;1727;-45
2023/08/30 00:03:46;;;;;;;4.10;2.92;;;;;;;20.02;67.68;92579.13;512655;28;967;-45
2023/08/30 00:04:02;;;;;;;3.70;3.23;;;;;;;20.01;67.70;92589.59;512886;28;853;-45
2023/08/30 00:04:18;;;;;;;4.82;3.00;;;;;;;20.01;67.81;92588.91;513940;28;801;-45
2023/08/30 00:04:33;;;;;;;5.80;2.60;;;;;;;20.00;67.79;92584.66;513599;28;1205;-45
2023/08/30 00:04:49;;;;;;;3.87;2.60;;;;;;;20.00;67.79;92587.44;513996;28;996;-45
2023/08/30 00:05:04;;;;;;;3.05;2.70;;;;;;;19.98;67.78;92590.16;513892;28;789;-45
2023/08/30 00:05:20;;;;;;;4.47;2.90;;;;;;;19.93;67.63;92582.91;513924;28;853;-45
2023/08/30 00:05:39;;;;;;;4.97;2.90;;;;;;;19.93;67.82;92586.44;513079;28;952;-45
2023/08/30 00:05:55;;;;;;;3.22;2.60;;;;;;;19.93;68.00;92583.66;511858;28;864;-45
2023/08/30 00:06:10;;;;;;;3.13;2.78;;;;;;;19.93;67.91;92589.25;512002;28;777;-45
2023/08/30 00:06:25;;;;;;;4.10;3.50;;;;;;;19.93;67.88;92582.91;512630;28;1104;-45
2023/08/30 00:06:41;;;;;;;4.10;3.43;;;;;;;19.94;67.95;92590.72;513234;28;1706;-45
2023/08/30 00:06:56;;;;;;;3.80;3.08;;;;;;;19.94;67.93;92585.09;512798;28;820;-45
2023/08/30 00:07:11;;;;;;;4.17;3.20;;;;;;;19.94;67.87;92581.56;513822;28;806;-46
2023/08/30 00:07:27;;;;;;;4.67;2.90;;;;;;;19.95;67.80;92583.72;511885;28;939;-46
2023/08/30 00:07:42;;;;;;;4.80;2.85;;;;;;;19.95;67.85;92583.72;513885;28;773;-46
2023/08/30 00:07:58;;;;;;;3.47;2.93;;;;;;;19.95;67.85;92591.41;513869;28;792;-47
2023/08/30 00:08:18;;;;;;;4.90;2.97;;;;;;;19.96;67.76;92585.19;513884;28;1115;-46
2023/08/30 00:08:33;;;;;;;3.28;2.85;;;;;;;19.95;67.91;92585.81;513789;28;989;-45
2023/08/30 00:08:49;;;;;;;3.35;2.70;;;;;;;19.96;67.98;92588.00;513874;28;809;-46
2023/08/30 00:09:04;;;;;;;2.77;2.50;;;;;;;19.94;68.16;92581.56;513904;28;774;-46
2023/08/30 00:09:19;;;;;;;3.90;2.97;;;;;;;19.96;68.41;92588.00;513566;28;1563;-46
2023/08/30 00:09:35;;;;;;;4.43;3.17;;;;;;;19.95;68.37;92585.81;513496;28;904;-46
2023/08/30 00:09:51;;;;;;;4.72;3.08;;;;;;;19.96;68.42;92590.06;513843;28;931;-47
2023/08/30 00:10:07;;;;;;;4.23;2.70;;;;;;;19.96;68.49;92581.66;513842;28;1286;-45
2023/08/30 00:10:23;;;;;;;2.70;2.40;;;;;;;19.96;68.46;92590.81;513971;28;852;-45
2023/08/30 00:10:39;;;;;;;3.73;2.47;;;;;;;19.98;68.51;92587.34;513813;28;939;-45
2023/08/30 00:10:56;;;;;;;3.70;2.50;;;;;;;19.99;68.36;92586.00;512755;28;1759;-44
2023/08/30 00:11:11;;;;;;;2.53;2.33;;;;;;;19.98;68.28;92582.47;513953;28;904;-47
2023/08/30 00:11:27;;;;;;;2.80;2.50;;;;;;;19.98;68.00;92582.47;512351;28;786;-46
2023/08/30 00:11:42;;;;;;;3.20;2.63;;;;;;;19.99;67.82;92588.81;513669;28;813;-46
2023/08/30 00:11:58;;;;;;;3.03;2.55;;;;;;;19.99;67.86;92580.41;513806;28;771;-47
2023/08/30 00:12:13;;;;;;;2.70;2.38;;;;;;;20.00;67.67;92584.66;513932;28;889;-46
2023/08/30 00:12:29;;;;;;;3.10;2.53;;;;;;;19.93;67.90;92574.50;513828;28;1107;-46
2023/08/30 00:12:45;;;;;;;3.50;2.75;;;;;;;20.01;67.82;92583.31;511916;28;815;-47
2023/08/30 00:13:00;;;;;;;3.08;2.67;;;;;;;20.01;67.80;92591.72;511907;28;873;-47
2023/08/30 00:13:15;;;;;;;3.37;2.87;;;;;;;20.02;67.63;92585.47;511886;29;1135;-47
2023/08/30 00:13:32;;;;;;;3.58;2.90;;;;;;;20.02;67.75;92590.34;512375;28;1748;-47
2023/08/30 00:13:47;;;;;;;3.05;2.65;;;;;;;20.02;67.64;92582.66;513781;28;892;-47
2023/08/30 00:14:07;;;;;;;2.83;2.60;;;;;;;20.02;67.45;92585.47;513722;28;1056;-47
2023/08/30 00:14:23;;;;;;;3.08;2.60;;;;;;;20.04;67.17;92587.63;513779;28;885;-47
2023/08/30 00:14:38;;;;;;;3.00;2.43;;;;;;;20.03;67.17;92583.41;513633;28;891;-47
2023/08/30 00:14:53;;;;;;;2.50;2.20;;;;;;;20.02;67.12;92579.13;513794;28;852;-47
2023/08/30 00:15:09;;;;;;;2.47;2.23;;;;;;;20.02;67.04;92581.94;513688;28;924;-47
2023/08/30 00:15:24;;;;;;;3.08;2.80;;;;;;;20.01;66.89;92584.00;513689;28;971;-46
2023/08/30 00:15:40;;;;;;;3.00;2.70;;;;;;;20.01;66.69;92584.00;513597;28;1127;-48
2023/08/30 00:15:55;;;;;;;2.70;2.50;;;;;;;20.00;66.54;92588.19;513651;28;1619;-47
2023/08/30 00:16:12;;;;;;;2.90;2.70;;;;;;;19.99;66.57;92577.59;513823;28;853;-47
2023/08/30 00:16:28;;;;;;;2.53;2.33;;;;;;;20.00;66.60;92584.66;513925;28;1188;-46
2023/08/30 00:16:43;;;;;;;2.77;2.20;;;;;;;19.98;66.52;92582.47;513539;28;1722;-46
2023/08/30 00:16:59;;;;;;;3.65;2.60;;;;;;;19.97;66.45;92580.28;513222;28;980;-47
2023/08/30 00:17:14;;;;;;;3.30;2.83;;;;;;;19.97;66.51;92580.28;513891;28;1240;-46
2023/08/30 00:17:30;;;;;;;4.38;2.60;;;;;;;19.96;66.47;92587.25;513932;28;794;-46
2023/08/30 00:17:45;;;;;;;4.30;2.60;;;;;;;19.95;66.51;92577.41;513866;28;784;-46
2023/08/30 00:18:01;;;;;;;3.22;2.90;;;;;;;19.89;66.46;92579.94;513823;28;819;-46
2023/08/30 00:18:18;;;;;;;3.10;2.80;;;;;;;19.96;66.47;92581.66;513756;28;1976;-46
2023/08/30 00:18:34;;;;;;;2.70;2.50;;;;;;;19.95;66.40;92585.81;513792;28;1119;-47
2023/08/30 00:18:49;;;;;;;2.90;2.60;;;;;;;19.94;66.40;92585.09;513839;28;770;-46
2023/08/30 00:19:04;;;;;;;3.07;2.50;;;;;;;19.94;66.58;92579.50;513911;28;828;-46
2023/08/30 00:19:20;;;;;;;2.95;2.50;;;;;;;19.93;66.46;92583.66;513903;28;811;-45
2023/08/30 00:19:36;;;;;;;3.10;2.80;;;;;;;19.93;66.32;92580.84;513818;28;805;-47
2023/08/30 00:19:52;;;;;;;3.10;2.80;;;;;;;19.93;66.46;92585.72;513865;28;952;-46
2023/08/30 00:20:08;;;;;;;3.72;3.05;;;;;;;19.88;66.62;92576.41;513839;28;1190;-47
2023/08/30 00:20:24;;;;;;;3.25;2.80;;;;;;;19.81;66.88;92582.38;513932;28;915;-46
2023/08/30 00:20:39;;;;;;;2.63;2.43;;;;;;;19.81;67.11;92587.97;513847;28;810;-46
2023/08/30 00:20:56;;;;;;;2.97;2.67;;;;;;;19.80;67.29;92590.03;512876;28;1756;-46
2023/08/30 00:21:12;;;;;;;3.13;2.72;;;;;;;19.79;67.23;92585.06;513438;28;897;-47
2023/08/30 00:21:28;;;;;;;3.08;2.78;;;;;;;19.79;67.43;92580.22;512405;28;1080;-46
2023/08/30 00:21:44;;;;;;;3.35;2.80;;;;;;;19.80;67.40;92583.72;513901;28;853;-47
2023/08/30 00:21:59;;;;;;;3.03;2.60;;;;;;;19.81;67.43;92587.97;513819;28;880;-47
2023/08/30 00:22:15;;;;;;;2.97;2.67;;;;;;;19.79;67.52;92582.28;513840;28;868;-46
2023/08/30 00:22:31;;;;;;;4.40;2.90;;;;;;;19.78;67.70;92589.94;513874;28;794;-46
2023/08/30 00:22:48;;;;;;;4.32;2.60;;;;;;;19.72;67.59;92572.88;513873;28;1630;-46
2023/08/30 00:23:04;;;;;;;3.17;2.53;;;;;;;19.79;67.82;92582.28;513729;28;1013;-47
2023/08/30 00:23:20;;;;;;;3.28;2.80;;;;;;;19.79;67.85;92576.69;513917;28;852;-47
2023/08/30 00:23:35;;;;;;;3.03;2.67;;;;;;;19.81;67.91;92579.56;513369;28;1652;-47
2023/08/30 00:23:51;;;;;;;3.40;2.67;;;;;;;19.81;67.95;92587.97;512404;28;1120;-47
2023/08/30 00:24:07;;;;;;;4.03;2.95;;;;;;;19.81;68.18;92582.38;513228;28;884;-46
2023/08/30 00:24:22;;;;;;;3.13;2.83;;;;;;;19.81;68.01;92583.09;513582;28;797;-46
2023/08/30 00:24:38;;;;;;;2.70;2.50;;;;;;;19.81;68.00;92583.09;513746;28;1154;-46
2023/08/30 00:24:53;;;;;;;3.37;2.80;;;;;;;19.81;68.12;92582.38;513816;28;918;-47
2023/08/30 00:25:09;;;;;;;3.97;3.05;;;;;;;19.83;68.05;92585.25;513901;28;947;-46
2023/08/30 00:25:24;;;;;;;3.10;2.63;;;;;;;19.83;68.13;92574.06;513919;28;1552;-46
2023/08/30 00:25:39;;;;;;;2.93;2.63;;;;;;;19.83;68.02;92585.25;513883;28;860;-46
2023/08/30 00:25:55;;;;;;;3.40;2.53;;;;;;;19.83;68.11;92585.25;513850;28;762;-46
2023/08/30 00:26:10;;;;;;;3.40;2.50;;;;;;;19.84;67.97;92581.13;513866;28;1060;-46
2023/08/30 00:26:25;;;;;;;3.13;2.77;;;;;;;19.84;67.99;92572.72;512977;28;1715;-46
2023/08/30 00:26:41;;;;;;;3.22;2.72;;;;;;;19.84;67.90;92576.22;513717;28;900;-46
2023/08/30 00:26:56;;;;;;;3.37;2.77;;;;;;;19.83;67.94;92574.78;513241;28;935;-47
2023/08/30 00:27:12;;;;;;;3.97;2.97;;;;;;;19.85;68.10;92576.94;512043;28;919;-47
2023/08/30 00:27:27;;;;;;;3.58;2.90;;;;;;;19.86;68.15;92578.41;511818;28;1155;-47
2023/08/30 00:27:42;;;;;;;3.10;2.80;;;;;;;19.85;68.23;92577.69;513836;28;1184;-46
2023/08/30 00:27:58;;;;;;;2.83;2.58;;;;;;;19.85;68.12;92586.09;513758;28;1630;-46
2023/08/30 00:28:13;;;;;;;2.70;2.47;;;;;;;19.85;68.02;92585.34;513910;28;942;-46
2023/08/30 00:28:29;;;;;;;2.93;2.63;;;;;;;19.83;67.93;92580.38;513837;28;825;-46
2023/08/30 00:28:44;;;;;;;3.88;2.83;;;;;;;19.84;67.75;92581.81;513824;28;853;-46
2023/08/30 00:28:59;;;;;;;3.60;2.80;;;;;;;19.83;67.73;92586.00;513854;28;1091;-46
2023/08/30 00:29:15;;;;;;;3.17;2.80;;;;;;;19.81;67.81;92587.97;513913;28;784;-47
2023/08/30 00:29:30;;;;;;;3.10;2.80;;;;;;;19.79;67.97;92574.59;513830;28;876;-46
2023/08/30 00:29:46;;;;;;;4.25;2.75;;;;;;;19.72;67.94;92572.13;513828;28;1097;-47
2023/08/30 00:30:02;;;;;;;4.43;2.88;;;;;;;19.79;68.05;92582.28;513894;28;817;-47
2023/08/30 00:30:17;;;;;;;4.32;3.00;;;;;;;19.79;68.12;92587.88;513865;28;801;-46
2023/08/30 00:30:32;;;;;;;4.57;2.90;;;;;;;19.79;67.95;92585.81;513781;28;818;-46
2023/08/30 00:30:53;;;;;;;3.10;2.80;;;;;;;19.79;68.05;92588.59;513432;28;1692;-47
2023/08/30 00:31:09;;;;;;;3.35;3.05;;;;;;;19.80;68.25;92583.72;513888;28;871;-46
2023/08/30 00:31:24;;;;;;;3.87;3.00;;;;;;;19.80;68.09;92583.72;513910;28;829;-47
2023/08/30 00:31:39;;;;;;;3.85;2.85;;;;;;;19.81;68.18;92587.97;513849;28;1092;-46
2023/08/30 00:31:55;;;;;;;4.37;3.07;;;;;;;19.82;68.26;92589.41;513705;28;857;-47
2023/08/30 00:32:11;;;;;;;4.03;3.13;;;;;;;19.74;68.21;92578.56;513802;28;1119;-46
2023/08/30 00:32:26;;;;;;;3.05;2.78;;;;;;;19.82;68.18;92583.81;513889;28;903;-47
2023/08/30 00:32:42;;;;;;;3.20;2.90;;;;;;;19.83;68.16;92585.25;513298;28;1534;-46
2023/08/30 00:32:57;;;;;;;3.10;2.80;;;;;;;19.83;68.29;92585.25;513724;28;813;-47
2023/08/30 00:33:12;;;;;;;2.97;2.70;;;;;;;19.83;68.06;92582.47;513735;28;786;-46
2023/08/30 00:33:28;;;;;;;4.07;2.95;;;;;;;19.82;68.11;92586.59;513214;28;1668;-47
2023/08/30 00:33:44;;;;;;;4.03;2.80;;;;;;;19.81;68.02;92582.38;513643;28;758;-45
2023/08/30 00:33:59;;;;;;;3.35;2.80;;;;;;;19.81;68.00;92594.31;513613;28;857;-47
2023/08/30 00:34:14;;;;;;;3.57;2.70;;;;;;;19.81;68.03;92587.97;513662;28;927;-47
2023/08/30 00:34:30;;;;;;;3.07;2.77;;;;;;;19.79;68.09;92588.59;513770;28;870;-46
2023/08/30 00:34:45;;;;;;;3.10;2.80;;;;;;;19.80;68.06;92592.13;513900;28;810;-46
2023/08/30 00:35:00;;;;;;;3.20;2.77;;;;;;;19.80;68.19;92589.31;513813;28;1123;-47
2023/08/30 00:35:16;;;;;;;3.45;3.00;;;;;;;19.79;68.19;92590.69;513863;28;1121;-47
2023/08/30 00:35:31;;;;;;;3.70;3.10;;;;;;;19.77;68.40;92596.19;513884;28;888;-47
2023/08/30 00:35:47;;;;;;;3.53;3.10;;;;;;;19.79;68.56;92590.69;513825;28;889;-47
2023/08/30 00:36:02;;;;;;;3.03;2.78;;;;;;;19.78;68.54;92589.22;513447;28;1271;-46
2023/08/30 00:36:18;;;;;;;2.83;2.63;;;;;;;19.76;68.61;92584.25;513733;28;857;-46
2023/08/30 00:36:34;;;;;;;3.75;3.00;;;;;;;19.78;68.42;92589.22;512914;28;1815;-47
2023/08/30 00:36:49;;;;;;;3.83;3.07;;;;;;;19.79;68.52;92590.69;513755;28;810;-46
2023/08/30 00:37:04;;;;;;;3.33;3.00;;;;;;;19.78;68.47;92589.94;512019;28;869;-47
2023/08/30 00:37:20;;;;;;;7.67;3.23;;;;;;;19.78;68.35;92589.94;511664;29;860;-46
2023/08/30 00:37:35;;;;;;;7.73;3.10;;;;;;;19.79;68.37;92593.47;513101;28;806;-47
2023/08/30 00:37:50;;;;;;;3.17;2.70;;;;;;;19.79;68.47;92590.69;513706;28;801;-46
2023/08/30 00:38:06;;;;;;;3.00;2.60;;;;;;;19.78;68.42;92583.63;513702;28;1163;-47
2023/08/30 00:38:21;;;;;;;3.07;2.77;;;;;;;19.79;68.42;92590.69;513839;28;1910;-45
2023/08/30 00:38:37;;;;;;;4.10;2.80;;;;;;;19.80;68.29;92594.91;513805;28;954;-46
2023/08/30 00:38:52;;;;;;;4.27;2.87;;;;;;;19.80;68.25;92589.31;513833;28;849;-46
2023/08/30 00:39:08;;;;;;;3.17;2.87;;;;;;;19.80;68.33;92592.13;513831;28;911;-47
2023/08/30 00:39:23;;;;;;;2.90;2.60;;;;;;;19.80;68.21;92589.31;513866;28;870;-46
2023/08/30 00:39:39;;;;;;;2.90;2.60;;;;;;;19.80;68.13;92589.31;513686;28;1528;-46
2023/08/30 00:39:54;;;;;;;3.37;2.83;;;;;;;19.80;68.23;92595.66;513753;28;805;-46
2023/08/30 00:40:10;;;;;;;3.90;2.90;;;;;;;19.81;67.93;92596.38;513897;28;840;-46
2023/08/30 00:40:26;;;;;;;3.22;2.78;;;;;;;19.81;67.86;92593.56;513853;28;1455;-47
2023/08/30 00:40:41;;;;;;;3.00;2.70;;;;;;;19.81;67.67;92599.19;513730;28;2513;-46
2023/08/30 00:40:57;;;;;;;3.15;2.70;;;;;;;19.81;67.66;92593.56;512941;28;1672;-47
2023/08/30 00:41:12;;;;;;;4.20;2.80;;;;;;;19.79;67.57;92591.41;513704;28;1194;-47
2023/08/30 00:41:27;;;;;;;4.13;2.87;;;;;;;19.80;67.61;92592.84;512684;28;884;-46
2023/08/30 00:41:43;;;;;;;4.18;2.80;;;;;;;19.79;67.74;92599.09;513800;28;839;-47
2023/08/30 00:41:58;;;;;;;4.03;2.77;;;;;;;19.79;67.75;92599.81;513830;28;807;-47
2023/08/30 00:42:14;;;;;;;3.53;2.60;;;;;;;19.79;67.77;92597.00;513794;28;826;-46
2023/08/30 00:42:29;;;;;;;2.85;2.20;;;;;;;19.79;67.67;92590.69;513837;28;1039;-47
2023/08/30 00:42:44;;;;;;;2.73;2.30;;;;;;;19.79;67.80;92593.47;513756;28;877;-48
2023/08/30 00:43:00;;;;;;;3.47;2.53;;;;;;;19.78;68.13;92601.16;513905;28;857;-47
2023/08/30 00:43:15;;;;;;;2.97;2.58;;;;;;;19.79;67.66;92601.88;513828;28;1370;-47
2023/08/30 00:43:30;;;;;;;3.10;2.70;;;;;;;19.78;67.84;92594.81;513368;28;1689;-46
2023/08/30 00:43:46;;;;;;;3.20;2.57;;;;;;;19.79;68.01;92596.28;512222;28;904;-47
2023/08/30 00:44:01;;;;;;;2.60;2.40;;;;;;;19.79;68.04;92602.63;513572;28;1139;-47
2023/08/30 00:44:17;;;;;;;3.73;2.70;;;;;;;19.80;68.02;92604.03;513858;28;817;-46
2023/08/30 00:44:32;;;;;;;3.60;2.70;;;;;;;19.79;68.22;92602.63;513607;28;1134;-47
2023/08/30 00:44:47;;;;;;;2.67;2.47;;;;;;;19.81;68.32;92604.78;511863;28;950;-46
2023/08/30 00:45:04;;;;;;;3.07;2.77;;;;;;;19.80;68.37;92598.44;511875;28;876;-46
2023/08/30 00:45:19;;;;;;;3.58;2.90;;;;;;;19.80;68.50;92606.13;511946;28;810;-47
2023/08/30 00:45:38;;;;;;;3.70;2.90;;;;;;;19.81;68.53;92599.19;512608;28;1091;-47
2023/08/30 00:45:53;;;;;;;4.40;2.92;;;;;;;19.81;68.25;92599.19;513809;28;886;-47
2023/08/30 00:46:09;;;;;;;4.60;2.90;;;;;;;19.79;68.33;92599.09;513507;28;1702;-48
2023/08/30 00:46:24;;;;;;;3.00;2.57;;;;;;;19.83;68.02;92599.28;512536;28;947;-47
2023/08/30 00:46:40;;;;;;;2.55;2.35;;;;;;;19.80;67.86;92604.03;513762;28;904;-46
2023/08/30 00:46:55;;;;;;;3.90;2.57;;;;;;;19.80;67.76;92594.91;513842;28;827;-45
2023/08/30 00:47:10;;;;;;;4.10;2.45;;;;;;;19.80;67.58;92592.84;513065;28;1428;-47
2023/08/30 00:47:26;;;;;;;2.70;2.40;;;;;;;19.79;67.53;92597.00;513603;28;880;-47
2023/08/30 00:47:42;;;;;;;2.77;2.57;;;;;;;19.79;67.52;92599.09;511248;29;931;-48
2023/08/30 00:47:57;;;;;;;3.40;2.70;;;;;;;19.78;67.51;92600.44;509703;29;822;-47
2023/08/30 00:48:14;;;;;;;3.77;2.67;;;;;;;19.76;67.50;92595.47;509712;29;849;-47
2023/08/30 00:48:30;;;;;;;3.20;2.50;;;;;;;19.75;67.34;92602.41;509605;29;882;-46
2023/08/30 00:48:45;;;;;;;3.23;2.53;;;;;;;19.74;67.52;92595.38;509744;29;873;-46
2023/08/30 00:49:01;;;;;;;3.33;2.60;;;;;;;19.73;67.42;92596.00;507785;29;908;-46
2023/08/30 00:49:17;;;;;;;3.60;2.45;;;;;;;19.71;67.41;92596.63;508269;29;957;-46
2023/08/30 00:49:32;;;;;;;3.45;2.38;;;;;;;19.70;67.43;92597.25;509726;29;1742;-47
2023/08/30 00:49:48;;;;;;;3.33;2.20;;;;;;;19.68;67.16;92595.78;512354;28;834;-46
2023/08/30 00:50:04;;;;;;;2.45;2.10;;;;;;;19.67;67.44;92597.16;510750;29;1034;-47
2023/08/30 00:50:19;;;;;;;2.45;2.22;;;;;;;19.64;67.33;92590.00;509746;29;884;-47
2023/08/30 00:50:35;;;;;;;3.23;2.57;;;;;;;19.63;67.36;92591.38;509635;29;1489;-47
2023/08/30 00:50:51;;;;;;;3.10;2.60;;;;;;;19.62;67.39;92592.00;508309;29;850;-46
2023/08/30 00:51:06;;;;;;;2.53;2.33;;;;;;;19.55;67.24;92584.69;509663;29;858;-46
2023/08/30 00:51:22;;;;;;;2.60;2.40;;;;;;;19.59;67.12;92591.19;509811;29;875;-47
2023/08/30 00:51:37;;;;;;;3.70;2.53;;;;;;;19.57;67.16;92590.38;507617;29;808;-47
2023/08/30 00:51:53;;;;;;;3.80;2.50;;;;;;;19.52;67.22;92595.06;508101;29;1561;-46
2023/08/30 00:52:10;;;;;;;2.78;2.45;;;;;;;19.52;67.46;92597.13;509289;29;1721;-46
2023/08/30 00:52:25;;;;;;;2.58;2.38;;;;;;;19.50;67.42;92594.97;508614;29;830;-47
2023/08/30 00:52:41;;;;;;;3.13;2.53;;;;;;;19.50;67.77;92594.22;509018;29;837;-46
2023/08/30 00:52:56;;;;;;;3.13;2.60;;;;;;;19.48;67.74;92603.25;507791;29;787;-47
2023/08/30 00:53:12;;;;;;;2.70;2.50;;;;;;;19.47;67.84;92603.88;509409;29;1258;-46
2023/08/30 00:53:27;;;;;;;2.97;2.50;;;;;;;19.45;68.09;92609.38;509703;29;903;-47
2023/08/30 00:53:44;;;;;;;3.42;2.63;;;;;;;19.44;68.11;92605.88;509738;29;857;-47
2023/08/30 00:54:00;;;;;;;3.78;2.72;;;;;;;19.43;68.42;92612.06;509584;29;897;-46
2023/08/30 00:54:15;;;;;;;3.53;2.70;;;;;;;19.42;68.55;92607.84;509309;29;875;-46
2023/08/30 00:54:31;;;;;;;2.85;2.50;;;;;;;19.40;68.45;92608.47;510056;28;1088;-46
2023/08/30 00:54:46;;;;;;;2.80;2.40;;;;;;;19.39;68.28;92607.03;512286;28;786;-46
2023/08/30 00:55:02;;;;;;;4.25;2.50;;;;;;;19.39;68.21;92609.81;513632;28;1019;-46
2023/08/30 00:55:17;;;;;;;4.60;2.73;;;;;;;19.37;68.13;92611.78;512240;28;865;-47
2023/08/30 00:55:34;;;;;;;4.78;2.58;;;;;;;19.32;67.99;92612.91;513688;28;854;-46
2023/08/30 00:55:49;;;;;;;4.53;2.33;;;;;;;19.29;68.08;92614.91;513724;28;842;-46
2023/08/30 00:56:05;;;;;;;3.08;2.58;;;;;;;19.27;68.02;92606.41;513558;28;1162;-46
2023/08/30 00:56:21;;;;;;;3.00;2.57;;;;;;;19.28;68.13;92616.25;513580;28;1736;-47
2023/08/30 00:56:36;;;;;;;2.50;2.28;;;;;;;19.26;68.02;92616.16;511537;29;837;-46
2023/08/30 00:56:52;;;;;;;2.65;2.45;;;;;;;19.25;68.11;92614.69;511728;29;842;-47
2023/08/30 00:57:09;;;;;;;2.80;2.60;;;;;;;19.24;68.32;92613.25;512229;28;806;-47
2023/08/30 00:57:24;;;;;;;2.78;2.58;;;;;;;19.23;68.35;92623.00;513663;28;859;-47
2023/08/30 00:57:39;;;;;;;2.70;2.50;;;;;;;19.22;68.52;92623.63;511707;29;1124;-47
2023/08/30 00:57:55;;;;;;;2.87;2.57;;;;;;;19.19;68.36;92613.69;511568;29;1175;-49
2023/08/30 00:58:11;;;;;;;2.80;2.60;;;;;;;19.18;68.28;92617.84;511640;29;975;-47
2023/08/30 00:58:26;;;;;;;2.87;2.53;;;;;;;19.16;68.35;92620.53;511680;29;836;-47
2023/08/30 00:58:42;;;;;;;3.40;2.60;;;;;;;19.15;68.51;92621.88;513527;28;782;-47
2023/08/30 00:58:57;;;;;;;2.67;2.45;;;;;;;19.12;68.46;92626.66;511627;29;909;-47
2023/08/30 00:59:13;;;;;;;2.70;2.50;;;;;;;19.10;68.54;92618.16;510715;29;1495;-46
2023/08/30 00:59:29;;;;;;;3.03;2.55;;;;;;;19.04;68.68;92623.44;510436;28;943;-47
2023/08/30 00:59:45;;;;;;;4.15;2.70;;;;;;;19.03;68.60;92621.28;511417;29;922;-46
2023/08/30 01:00:00;;;;;;;4.57;2.57;;;;;;;19.01;68.83;92619.13;511707;29;851;-47
2023/08/30 01:00:16;;;;;;;3.47;2.45;;;;;;;19.01;68.90;92623.97;509624;29;1473;-47
2023/08/30 01:00:32;;;;;;;3.72;2.60;;;;;;;18.98;69.06;92622.44;509662;29;1132;-46
2023/08/30 01:00:48;;;;;;;3.63;2.45;;;;;;;18.94;69.24;92636.94;508299;29;1364;-47
2023/08/30 01:01:07;;;;;;;2.70;2.50;;;;;;;18.92;69.47;92625.66;509781;29;814;-46
2023/08/30 01:01:22;;;;;;;3.00;2.70;;;;;;;18.90;69.52;92631.16;507793;29;915;-46
2023/08/30 01:01:38;;;;;;;2.97;2.58;;;;;;;18.90;69.59;92628.34;509786;29;891;-46
2023/08/30 01:01:55;;;;;;;3.25;2.65;;;;;;;18.82;69.71;92620.28;511568;29;897;-45
2023/08/30 01:02:11;;;;;;;3.35;2.53;;;;;;;18.90;69.77;92626.28;512055;28;1549;-46
2023/08/30 01:02:26;;;;;;;3.33;2.97;;;;;;;18.89;69.80;92629.69;510698;29;881;-45
2023/08/30 01:02:41;;;;;;;3.27;2.97;;;;;;;18.89;69.88;92629.69;512552;28;778;-46
2023/08/30 01:02:57;;;;;;;3.50;2.80;;;;;;;18.88;69.93;92633.84;513688;28;845;-46
2023/08/30 01:03:13;;;;;;;3.53;2.77;;;;;;;18.89;69.94;92629.69;513492;28;871;-46
2023/08/30 01:03:28;;;;;;;2.65;2.42;;;;;;;18.88;70.01;92628.25;513659;28;833;-45
2023/08/30 01:03:44;;;;;;;2.63;2.43;;;;;;;18.88;70.15;92631.06;513515;28;1155;-45
2023/08/30 01:04:00;;;;;;;2.63;2.42;;;;;;;18.87;70.05;92624.72;513505;28;971;-46
2023/08/30 01:04:15;;;;;;;2.67;2.47;;;;;;;18.87;70.32;92632.38;513551;28;939;-44
2023/08/30 01:04:31;;;;;;;2.87;2.53;;;;;;;18.87;70.36;92637.97;513745;28;1264;-45
2023/08/30 01:04:47;;;;;;;2.75;2.55;;;;;;;18.86;70.55;92633.75;513835;28;821;-46
2023/08/30 01:05:03;;;;;;;2.65;2.45;;;;;;;18.85;70.45;92640.69;513640;28;1186;-46
2023/08/30 01:05:18;;;;;;;3.20;2.60;;;;;;;18.84;70.63;92639.94;513668;28;854;-45
2023/08/30 01:05:34;;;;;;;2.90;2.60;;;;;;;18.84;70.70;92639.25;513737;28;782;-45
2023/08/30 01:05:49;;;;;;;3.70;2.37;;;;;;;18.82;70.76;92641.91;513700;28;853;-45
2023/08/30 01:06:05;;;;;;;6.53;2.73;;;;;;;18.82;70.94;92641.91;513620;28;931;-46
2023/08/30 01:06:20;;;;;;;5.82;2.85;;;;;;;18.82;70.93;92639.84;513424;28;1151;-45
2023/08/30 01:06:35;;;;;;;3.10;2.60;;;;;;;18.81;71.11;92644.00;513103;28;1798;-46
2023/08/30 01:06:52;;;;;;;3.67;2.80;;;;;;;18.81;70.97;92638.41;512302;28;1171;-46
2023/08/30 01:07:07;;;;;;;3.75;2.95;;;;;;;18.82;71.00;92639.84;513140;28;837;-45
2023/08/30 01:07:23;;;;;;;3.13;2.83;;;;;;;18.80;71.03;92639.00;513731;28;1250;-45
2023/08/30 01:07:39;;;;;;;3.50;2.80;;;;;;;18.82;71.12;92639.13;513847;28;746;-45
2023/08/30 01:07:54;;;;;;;3.67;2.83;;;;;;;18.82;71.17;92636.31;513425;28;1095;-46
2023/08/30 01:08:11;;;;;;;3.33;2.92;;;;;;;18.82;71.12;92630.72;513679;28;1146;-45
2023/08/30 01:08:27;;;;;;;3.13;2.75;;;;;;;18.72;70.98;92621.84;513669;28;1615;-47
2023/08/30 01:08:42;;;;;;;3.25;2.85;;;;;;;18.83;71.07;92640.56;512930;28;860;-46
2023/08/30 01:08:58;;;;;;;3.75;2.80;;;;;;;18.83;71.17;92637.78;513716;28;821;-46
2023/08/30 01:09:14;;;;;;;3.72;2.65;;;;;;;18.83;71.18;92643.38;513109;28;1712;-46
2023/08/30 01:09:29;;;;;;;3.20;2.67;;;;;;;18.84;70.95;92639.25;512663;28;787;-46
2023/08/30 01:09:45;;;;;;;3.78;2.78;;;;;;;18.84;71.14;92644.84;512701;28;778;-46
2023/08/30 01:10:00;;;;;;;3.80;2.70;;;;;;;18.86;71.19;92639.34;513638;28;821;-45
2023/08/30 01:10:15;;;;;;;2.70;2.47;;;;;;;18.85;71.39;92638.59;512869;28;863;-44
2023/08/30 01:10:58;;;;;;;3.05;2.50;;;;;;;18.82;71.30;92630.72;512233;28;885;-46
2023/08/30 01:11:34;;;;;;;3.53;2.75;;;;;;;18.90;71.33;92645.88;511334;29;1240;-45
2023/08/30 01:12:17;;;;;;;3.75;2.72;;;;;;;18.92;71.25;92640.38;513630;28;928;-45
2023/08/30 01:12:38;;;;;;;2.97;2.67;;;;;;;18.94;71.32;92639.75;511790;28;967;-46
2023/08/30 01:13:00;;;;;;;3.17;2.88;;;;;;;18.96;71.21;92650.31;509753;29;861;-46
2023/08/30 01:13:19;;;;;;;3.13;2.83;;;;;;;18.96;71.15;92639.84;510528;28;842;-45
2023/08/30 01:13:59;;;;;;;3.20;2.90;;;;;;;18.98;71.33;92645.53;510766;29;870;-45
2023/08/30 01:14:33;;;;;;;3.13;2.75;;;;;;;19.00;71.46;92642.09;513060;28;1303;-45
2023/08/30 01:14:57;;;;;;;3.42;2.83;;;;;;;19.01;71.44;92635.91;511716;28;1024;-46
2023/08/30 01:15:15;;;;;;;3.25;2.80;;;;;;;19.01;71.75;92630.31;513038;28;841;-45
2023/08/30 01:15:32;;;;;;;2.97;2.67;;;;;;;19.02;71.82;92640.13;513637;28;1060;-45
2023/08/30 01:15:48;;;;;;;2.70;2.50;;;;;;;19.01;71.77;92635.91;511628;29;876;-46
2023/08/30 01:16:04;;;;;;;3.20;2.90;;;;;;;19.03;71.88;92641.59;511671;29;843;-46
2023/08/30 01:16:21;;;;;;;3.50;3.20;;;;;;;19.00;72.03;92634.44;511704;29;1195;-46
2023/08/30 01:16:37;;;;;;;3.10;2.80;;;;;;;19.03;71.93;92638.06;509430;29;1694;-46
2023/08/30 01:16:53;;;;;;;2.90;2.70;;;;;;;19.04;72.16;92637.44;509698;29;951;-46
2023/08/30 01:17:10;;;;;;;2.90;2.60;;;;;;;19.05;71.93;92635.38;509612;29;1140;-46
2023/08/30 01:17:26;;;;;;;3.22;2.78;;;;;;;19.05;72.10;92635.38;509691;29;904;-45
2023/08/30 01:17:45;;;;;;;2.90;2.60;;;;;;;19.06;72.05;92642.44;508947;29;1088;-47
2023/08/30 01:18:01;;;;;;;3.75;2.80;;;;;;;19.05;72.23;92641.69;507720;29;906;-45
2023/08/30 01:18:20;;;;;;;3.88;3.03;;;;;;;18.95;72.25;92621.59;507644;29;1998;-45
2023/08/30 01:18:37;;;;;;;3.28;2.97;;;;;;;19.06;72.22;92643.13;509500;29;1045;-45
2023/08/30 01:18:56;;;;;;;3.72;3.10;;;;;;;19.08;72.20;92643.22;511717;29;852;-45